sensor_id;sensor_type;location;lat;lon;timestamp;pressure;altitude;pressure_sealevel;temperature;humidity
66486;BME280;53303;47.476;8.084;2023-06-04T00:00:53;95190.56;;;23.60;41.95
66486;BME280;53303;47.476;8.084;2023-06-04T00:03:18;95191.88;;;23.59;41.95
66486;BME280;53303;47.476;8.084;2023-06-04T00:05:44;95192.63;;;23.59;41.98
66486;BME280;53303;47.476;8.084;2023-06-04T00:08:09;95188.56;;;23.60;42.11
66486;BME280;53303;47.476;8.084;2023-06-04T00:10:35;95196.91;;;23.60;41.98
66486;BME280;53303;47.476;8.084;2023-06-04T00:13:03;95191.88;;;23.59;41.88
66486;BME280;53303;47.476;8.084;2023-06-04T00:15:28;95189.94;;;23.53;42.04
66486;BME280;53303;47.476;8.084;2023-06-04T00:17:53;95194.13;;;23.60;41.80
66486;BME280;53303;47.476;8.084;2023-06-04T00:20:19;95192.41;;;23.57;42.06
66486;BME280;53303;47.476;8.084;2023-06-04T00:22:47;95180.75;;;23.59;41.71
66486;BME280;53303;47.476;8.084;2023-06-04T00:25:15;95188.31;;;23.58;41.59
66486;BME280;53303;47.476;8.084;2023-06-04T00:27:40;95176.56;;;23.52;41.71
66486;BME280;53303;47.476;8.084;2023-06-04T00:30:06;95181.28;;;23.57;41.79
66486;BME280;53303;47.476;8.084;2023-06-04T00:32:32;95187.59;;;23.57;41.79
66486;BME280;53303;47.476;8.084;2023-06-04T00:34:57;95192.63;;;23.59;41.81
66486;BME280;53303;47.476;8.084;2023-06-04T00:37:24;95183.84;;;23.55;41.77
66486;BME280;53303;47.476;8.084;2023-06-04T00:39:49;95184.78;;;23.57;41.68
66486;BME280;53303;47.476;8.084;2023-06-04T00:42:15;95183.84;;;23.55;41.81
66486;BME280;53303;47.476;8.084;2023-06-04T00:44:41;95181.59;;;23.53;41.73
66486;BME280;53303;47.476;8.084;2023-06-04T00:47:12;95174.09;;;23.48;41.71
66486;BME280;53303;47.476;8.084;2023-06-04T00:49:38;95184.38;;;23.53;41.73
66486;BME280;53303;47.476;8.084;2023-06-04T00:52:04;95182.66;;;23.50;41.68
66486;BME280;53303;47.476;8.084;2023-06-04T00:54:30;95185.66;;;23.52;41.66
66486;BME280;53303;47.476;8.084;2023-06-04T00:57:00;95182.88;;;23.52;41.54
66486;BME280;53303;47.476;8.084;2023-06-04T00:59:26;95190.91;;;23.56;41.70
66486;BME280;53303;47.476;8.084;2023-06-04T01:04:42;95193.38;;;23.46;41.51
66486;BME280;53303;47.476;8.084;2023-06-04T01:07:09;95186.44;;;23.53;41.55
66486;BME280;53303;47.476;8.084;2023-06-04T01:09:38;95192.19;;;23.55;41.65
66486;BME280;53303;47.476;8.084;2023-06-04T01:12:07;95183.63;;;23.53;41.75
66486;BME280;53303;47.476;8.084;2023-06-04T01:14:33;95188.66;;;23.54;41.59
66486;BME280;53303;47.476;8.084;2023-06-04T01:17:11;95180.09;;;23.52;41.60
66486;BME280;53303;47.476;8.084;2023-06-04T01:24:56;95174.84;;;23.49;41.60
66486;BME280;53303;47.476;8.084;2023-06-04T01:27:24;95188.22;;;23.50;41.70
66486;BME280;53303;47.476;8.084;2023-06-04T01:29:50;95188.97;;;23.51;41.58
66486;BME280;53303;47.476;8.084;2023-06-04T01:32:17;95186.19;;;23.51;41.61
66486;BME280;53303;47.476;8.084;2023-06-04T01:34:47;95183.19;;;23.49;41.74
66486;BME280;53303;47.476;8.084;2023-06-04T01:37:13;95183.53;;;23.45;41.61
66486;BME280;53303;47.476;8.084;2023-06-04T01:39:38;95181.72;;;23.48;41.69
66486;BME280;53303;47.476;8.084;2023-06-04T01:42:06;95185.25;;;23.48;41.61
66486;BME280;53303;47.476;8.084;2023-06-04T01:44:32;95190.28;;;23.50;41.58
66486;BME280;53303;47.476;8.084;2023-06-04T01:46:57;95192.28;;;23.49;41.60
66486;BME280;53303;47.476;8.084;2023-06-04T01:49:22;95190.81;;;23.48;41.49
66486;BME280;53303;47.476;8.084;2023-06-04T01:51:50;95195.84;;;23.50;41.52
66486;BME280;53303;47.476;8.084;2023-06-04T01:54:16;95193.19;;;23.44;41.39
66486;BME280;53303;47.476;8.084;2023-06-04T01:56:42;95202.69;;;23.49;41.24
66486;BME280;53303;47.476;8.084;2023-06-04T01:59:07;95199.47;;;23.45;41.55
66486;BME280;53303;47.476;8.084;2023-06-04T02:01:33;95192.41;;;23.44;41.36
66486;BME280;53303;47.476;8.084;2023-06-04T02:03:59;95203.44;;;23.49;41.07
66486;BME280;53303;47.476;8.084;2023-06-04T02:06:24;95198.94;;;23.46;41.41
66486;BME280;53303;47.476;8.084;2023-06-04T02:08:55;95205.25;;;23.47;41.41
66486;BME280;53303;47.476;8.084;2023-06-04T02:11:21;95200.44;;;23.47;41.41
66486;BME280;53303;47.476;8.084;2023-06-04T02:13:48;95200.44;;;23.47;41.45
66486;BME280;53303;47.476;8.084;2023-06-04T02:16:14;95203.22;;;23.47;41.14
66486;BME280;53303;47.476;8.084;2023-06-04T02:18:42;95194.25;;;23.41;41.37
66486;BME280;53303;47.476;8.084;2023-06-04T02:21:07;95203.22;;;23.47;41.39
66486;BME280;53303;47.476;8.084;2023-06-04T02:23:34;95188.88;;;23.43;41.38
66486;BME280;53303;47.476;8.084;2023-06-04T02:25:59;95198.19;;;23.46;41.29
66486;BME280;53303;47.476;8.084;2023-06-04T02:28:25;95193.72;;;23.43;41.46
66486;BME280;53303;47.476;8.084;2023-06-04T02:30:50;95202.25;;;23.45;41.38
66486;BME280;53303;47.476;8.084;2023-06-04T02:33:15;95199.47;;;23.45;41.28
66486;BME280;53303;47.476;8.084;2023-06-04T02:35:41;95196.50;;;23.43;41.40
66486;BME280;53303;47.476;8.084;2023-06-04T02:38:07;95187.94;;;23.41;41.33
66486;BME280;53303;47.476;8.084;2023-06-04T02:40:38;95189.19;;;23.40;41.20
66486;BME280;53303;47.476;8.084;2023-06-04T02:43:03;95199.28;;;23.43;41.27
66486;BME280;53303;47.476;8.084;2023-06-04T02:45:31;95200.03;;;23.43;41.20
66486;BME280;53303;47.476;8.084;2023-06-04T02:47:57;95197.97;;;23.44;41.17
66486;BME280;53303;47.476;8.084;2023-06-04T02:50:22;95204.06;;;23.42;41.31
66486;BME280;53303;47.476;8.084;2023-06-04T02:52:48;95213.19;;;23.43;41.25
66486;BME280;53303;47.476;8.084;2023-06-04T02:55:13;95207.41;;;23.41;41.23
66486;BME280;53303;47.476;8.084;2023-06-04T02:57:40;95211.69;;;23.42;40.92
66486;BME280;53303;47.476;8.084;2023-06-04T03:00:08;95208.16;;;23.41;41.25
66486;BME280;53303;47.476;8.084;2023-06-04T03:02:41;95215.97;;;23.43;41.12
66486;BME280;53303;47.476;8.084;2023-06-04T03:05:09;95209.97;;;23.38;40.92
66486;BME280;53303;47.476;8.084;2023-06-04T03:07:36;95202.69;;;23.35;40.91
66486;BME280;53303;47.476;8.084;2023-06-04T03:10:02;95219.81;;;23.40;40.99
66486;BME280;53303;47.476;8.084;2023-06-04T03:12:28;95215.53;;;23.38;41.00
66486;BME280;53303;47.476;8.084;2023-06-04T03:14:53;95215.53;;;23.38;40.91
66486;BME280;53303;47.476;8.084;2023-06-04T03:17:21;95214.78;;;23.38;41.00
66486;BME280;53303;47.476;8.084;2023-06-04T03:19:46;95224.66;;;23.39;41.03
66486;BME280;53303;47.476;8.084;2023-06-04T03:22:13;95224.66;;;23.39;41.10
66486;BME280;53303;47.476;8.084;2023-06-04T03:24:40;95230.22;;;23.39;40.81
66486;BME280;53303;47.476;8.084;2023-06-04T03:27:07;95226.66;;;23.38;40.92
66486;BME280;53303;47.476;8.084;2023-06-04T03:29:33;95232.25;;;23.38;40.80
66486;BME280;53303;47.476;8.084;2023-06-04T03:32:00;95227.44;;;23.39;40.78
66486;BME280;53303;47.476;8.084;2023-06-04T03:34:25;95234.06;;;23.36;40.91
66486;BME280;53303;47.476;8.084;2023-06-04T03:36:54;95233.53;;;23.37;40.87
66486;BME280;53303;47.476;8.084;2023-06-04T03:39:20;95231.50;;;23.38;40.83
66486;BME280;53303;47.476;8.084;2023-06-04T03:41:48;95237.59;;;23.36;40.81
66486;BME280;53303;47.476;8.084;2023-06-04T03:44:14;95237.59;;;23.36;40.78
66486;BME280;53303;47.476;8.084;2023-06-04T03:46:43;95234.91;;;23.31;40.68
66486;BME280;53303;47.476;8.084;2023-06-04T03:49:13;95248.72;;;23.36;40.79
66486;BME280;53303;47.476;8.084;2023-06-04T03:51:39;95242.41;;;23.36;40.87
66486;BME280;53303;47.476;8.084;2023-06-04T03:54:05;95249.50;;;23.37;40.67
66486;BME280;53303;47.476;8.084;2023-06-04T03:56:31;95243.16;;;23.36;40.72
66486;BME280;53303;47.476;8.084;2023-06-04T03:58:57;95243.16;;;23.36;40.67
66486;BME280;53303;47.476;8.084;2023-06-04T04:01:22;95246.25;;;23.33;40.79
66486;BME280;53303;47.476;8.084;2023-06-04T04:03:51;95247.78;;;23.34;40.79
66486;BME280;53303;47.476;8.084;2023-06-04T04:06:18;95243.69;;;23.35;40.70
66486;BME280;53303;47.476;8.084;2023-06-04T04:08:44;95242.53;;;23.30;40.62
66486;BME280;53303;47.476;8.084;2023-06-04T04:11:16;95252.59;;;23.33;40.45
66486;BME280;53303;47.476;8.084;2023-06-04T04:13:44;95247.78;;;23.34;40.62
66486;BME280;53303;47.476;8.084;2023-06-04T04:16:09;95245.84;;;23.29;40.73
66486;BME280;53303;47.476;8.084;2023-06-04T04:18:36;95252.91;;;23.30;40.56
66486;BME280;53303;47.476;8.084;2023-06-04T04:21:02;95251.84;;;23.33;40.51
66486;BME280;53303;47.476;8.084;2023-06-04T04:23:28;95254.63;;;23.33;40.68
66486;BME280;53303;47.476;8.084;2023-06-04T04:25:54;95256.66;;;23.32;40.42
66486;BME280;53303;47.476;8.084;2023-06-04T04:28:22;95255.72;;;23.30;40.72
66486;BME280;53303;47.476;8.084;2023-06-04T04:30:47;95259.97;;;23.31;40.57
66486;BME280;53303;47.476;8.084;2023-06-04T04:33:14;95265.00;;;23.32;40.59
66486;BME280;53303;47.476;8.084;2023-06-04T04:35:44;95259.03;;;23.28;40.74
66486;BME280;53303;47.476;8.084;2023-06-04T04:38:10;95265.53;;;23.31;40.87
66486;BME280;53303;47.476;8.084;2023-06-04T04:40:36;95262.75;;;23.31;40.72
66486;BME280;53303;47.476;8.084;2023-06-04T04:43:04;95262.75;;;23.31;40.82
66486;BME280;53303;47.476;8.084;2023-06-04T04:45:29;95264.81;;;23.30;40.79
66486;BME280;53303;47.476;8.084;2023-06-04T04:47:55;95275.94;;;23.30;40.75
66486;BME280;53303;47.476;8.084;2023-06-04T04:50:20;95274.41;;;23.29;40.88
66486;BME280;53303;47.476;8.084;2023-06-04T04:52:46;95269.16;;;23.26;40.91
66486;BME280;53303;47.476;8.084;2023-06-04T04:55:11;95274.94;;;23.28;40.92
66486;BME280;53303;47.476;8.084;2023-06-04T04:57:38;95280.75;;;23.30;40.91
66486;BME280;53303;47.476;8.084;2023-06-04T05:00:04;95280.00;;;23.29;41.14
66486;BME280;53303;47.476;8.084;2023-06-04T05:02:37;95284.06;;;23.28;41.03
66486;BME280;53303;47.476;8.084;2023-06-04T05:05:03;95280.75;;;23.30;40.77
66486;BME280;53303;47.476;8.084;2023-06-04T05:07:29;95283.09;;;23.26;41.28
66486;BME280;53303;47.476;8.084;2023-06-04T05:09:55;95278.06;;;23.24;41.18
66486;BME280;53303;47.476;8.084;2023-06-04T05:12:20;95280.31;;;23.26;41.14
66486;BME280;53303;47.476;8.084;2023-06-04T05:14:46;95279.78;;;23.27;41.11
66486;BME280;53303;47.476;8.084;2023-06-04T05:17:14;95278.50;;;23.28;41.47
66486;BME280;53303;47.476;8.084;2023-06-04T05:19:41;95277.31;;;23.24;41.05
66486;BME280;53303;47.476;8.084;2023-06-04T05:22:07;95275.25;;;23.24;41.50
66486;BME280;53303;47.476;8.084;2023-06-04T05:24:33;95288.88;;;23.28;41.20
66486;BME280;53303;47.476;8.084;2023-06-04T05:26:59;95293.69;;;23.27;41.32
66486;BME280;53303;47.476;8.084;2023-06-04T05:29:24;95285.66;;;23.24;41.07
66486;BME280;53303;47.476;8.084;2023-06-04T05:31:53;95291.44;;;23.26;41.49
66486;BME280;53303;47.476;8.084;2023-06-04T05:34:18;95289.19;;;23.24;41.53
66486;BME280;53303;47.476;8.084;2023-06-04T05:36:43;95295.75;;;23.27;41.46
66486;BME280;53303;47.476;8.084;2023-06-04T05:39:09;95294.00;;;23.24;41.43
66486;BME280;53303;47.476;8.084;2023-06-04T05:41:35;95292.22;;;23.26;41.40
66486;BME280;53303;47.476;8.084;2023-06-04T05:44:02;95302.78;;;23.28;41.67
66486;BME280;53303;47.476;8.084;2023-06-04T05:46:27;95300.78;;;23.28;41.59
66486;BME280;53303;47.476;8.084;2023-06-04T05:48:53;95296.06;;;23.23;41.47
66486;BME280;53303;47.476;8.084;2023-06-04T05:51:19;95292.75;;;23.25;41.86
66486;BME280;53303;47.476;8.084;2023-06-04T05:53:45;95295.75;;;23.27;41.76
66486;BME280;53303;47.476;8.084;2023-06-04T05:56:11;95290.28;;;23.21;41.68
66486;BME280;53303;47.476;8.084;2023-06-04T05:58:36;95295.00;;;23.26;41.70
66486;BME280;53303;47.476;8.084;2023-06-04T06:01:02;95304.09;;;23.27;41.35
66486;BME280;53303;47.476;8.084;2023-06-04T06:03:28;95303.88;;;23.25;41.56
66486;BME280;53303;47.476;8.084;2023-06-04T06:05:54;95304.81;;;23.27;41.71
66486;BME280;53303;47.476;8.084;2023-06-04T06:08:20;95302.78;;;23.28;41.79
66486;BME280;53303;47.476;8.084;2023-06-04T06:10:46;95299.03;;;23.25;41.98
66486;BME280;53303;47.476;8.084;2023-06-04T06:13:11;95304.81;;;23.27;41.67
66486;BME280;53303;47.476;8.084;2023-06-04T06:15:39;95302.56;;;23.26;41.78
66486;BME280;53303;47.476;8.084;2023-06-04T06:18:04;95298.09;;;23.23;41.74
66486;BME280;53303;47.476;8.084;2023-06-04T06:20:30;95305.56;;;23.28;41.90
66486;BME280;53303;47.476;8.084;2023-06-04T06:23:05;95301.84;;;23.25;41.56
66486;BME280;53303;47.476;8.084;2023-06-04T06:25:31;95318.53;;;23.25;41.66
66486;BME280;53303;47.476;8.084;2023-06-04T06:27:56;95313.19;;;23.27;41.73
66486;BME280;53303;47.476;8.084;2023-06-04T06:30:21;95316.50;;;23.26;41.77
66486;BME280;53303;47.476;8.084;2023-06-04T06:32:50;95311.44;;;23.24;41.79
66486;BME280;53303;47.476;8.084;2023-06-04T06:35:16;95313.72;;;23.26;41.71
66486;BME280;53303;47.476;8.084;2023-06-04T06:37:42;95305.66;;;23.22;41.60
66486;BME280;53303;47.476;8.084;2023-06-04T06:40:09;95311.13;;;23.28;41.69
66486;BME280;53303;47.476;8.084;2023-06-04T06:42:37;95316.50;;;23.26;41.64
66486;BME280;53303;47.476;8.084;2023-06-04T06:45:03;95321.00;;;23.29;41.74
66486;BME280;53303;47.476;8.084;2023-06-04T06:47:28;95319.50;;;23.28;41.78
66486;BME280;53303;47.476;8.084;2023-06-04T06:49:53;95323.78;;;23.29;41.72
66486;BME280;53303;47.476;8.084;2023-06-04T06:52:20;95320.56;;;23.25;41.84
66486;BME280;53303;47.476;8.084;2023-06-04T06:54:45;95321.53;;;23.27;41.66
66486;BME280;53303;47.476;8.084;2023-06-04T06:57:14;95319.06;;;23.24;41.53
66486;BME280;53303;47.476;8.084;2023-06-04T06:59:40;95325.84;;;23.28;41.71
66486;BME280;53303;47.476;8.084;2023-06-04T07:02:06;95319.81;;;23.24;41.72
66486;BME280;53303;47.476;8.084;2023-06-04T07:04:33;95327.84;;;23.28;41.63
66486;BME280;53303;47.476;8.084;2023-06-04T07:06:59;95331.41;;;23.28;41.67
66486;BME280;53303;47.476;8.084;2023-06-04T07:09:27;95334.19;;;23.28;41.58
66486;BME280;53303;47.476;8.084;2023-06-04T07:11:52;95331.19;;;23.26;41.80
66486;BME280;53303;47.476;8.084;2023-06-04T07:14:17;95326.56;;;23.29;41.62
66486;BME280;53303;47.476;8.084;2023-06-04T07:16:43;95330.63;;;23.28;41.61
66486;BME280;53303;47.476;8.084;2023-06-04T07:19:08;95328.63;;;23.28;41.65
66486;BME280;53303;47.476;8.084;2023-06-04T07:21:34;95329.66;;;23.25;41.77
66486;BME280;53303;47.476;8.084;2023-06-04T07:23:59;95326.88;;;23.25;41.66
66486;BME280;53303;47.476;8.084;2023-06-04T07:26:27;95332.13;;;23.29;41.62
66486;BME280;53303;47.476;8.084;2023-06-04T07:28:55;95323.56;;;23.27;41.66
66486;BME280;53303;47.476;8.084;2023-06-04T07:31:22;95324.09;;;23.25;41.83
66486;BME280;53303;47.476;8.084;2023-06-04T07:33:47;95319.81;;;23.24;41.62
66486;BME280;53303;47.476;8.084;2023-06-04T07:36:13;95317.78;;;23.25;41.42
66486;BME280;53303;47.476;8.084;2023-06-04T07:38:41;95325.06;;;23.28;41.67
66486;BME280;53303;47.476;8.084;2023-06-04T07:41:07;95313.41;;;23.29;42.03
66486;BME280;53303;47.476;8.084;2023-06-04T07:43:34;95323.25;;;23.30;42.08
66486;BME280;53303;47.476;8.084;2023-06-04T07:46:03;95312.66;;;23.29;42.09
66486;BME280;53303;47.476;8.084;2023-06-04T07:48:29;95303.34;;;23.26;42.15
66486;BME280;53303;47.476;8.084;2023-06-04T07:51:01;95312.13;;;23.30;42.18
66486;BME280;53303;47.476;8.084;2023-06-04T07:53:27;95304.31;;;23.29;42.25
66486;BME280;53303;47.476;8.084;2023-06-04T07:55:53;95304.81;;;23.27;42.37
66486;BME280;53303;47.476;8.084;2023-06-04T07:58:19;95306.56;;;23.30;42.27
66486;BME280;53303;47.476;8.084;2023-06-04T08:00:46;95302.78;;;23.28;42.25
66486;BME280;53303;47.476;8.084;2023-06-04T08:03:12;95315.44;;;23.29;42.35
66486;BME280;53303;47.476;8.084;2023-06-04T08:05:37;95313.19;;;23.27;42.22
66486;BME280;53303;47.476;8.084;2023-06-04T08:08:03;95305.34;;;23.26;42.24
66486;BME280;53303;47.476;8.084;2023-06-04T08:10:29;95307.63;;;23.27;42.34
66486;BME280;53303;47.476;8.084;2023-06-04T08:12:56;95312.44;;;23.27;42.39
66486;BME280;53303;47.476;8.084;2023-06-04T08:15:21;95318.22;;;23.29;42.43
66486;BME280;53303;47.476;8.084;2023-06-04T08:17:49;95318.97;;;23.29;42.51
66486;BME280;53303;47.476;8.084;2023-06-04T08:20:14;95310.19;;;23.25;42.45
66486;BME280;53303;47.476;8.084;2023-06-04T08:22:40;95316.72;;;23.28;42.45
66486;BME280;53303;47.476;8.084;2023-06-04T08:25:06;95315.44;;;23.29;42.38
66486;BME280;53303;47.476;8.084;2023-06-04T08:27:32;95308.91;;;23.26;42.64
66486;BME280;53303;47.476;8.084;2023-06-04T08:29:57;95317.47;;;23.28;42.41
66486;BME280;53303;47.476;8.084;2023-06-04T08:32:25;95316.72;;;23.28;42.63
66486;BME280;53303;47.476;8.084;2023-06-04T08:34:51;95315.97;;;23.27;42.38
66486;BME280;53303;47.476;8.084;2023-06-04T08:37:17;95316.19;;;23.29;42.70
66486;BME280;53303;47.476;8.084;2023-06-04T08:39:43;95317.47;;;23.28;42.34
66486;BME280;53303;47.476;8.084;2023-06-04T08:42:15;95311.69;;;23.26;42.55
66486;BME280;53303;47.476;8.084;2023-06-04T08:44:46;95311.91;;;23.28;42.49
66486;BME280;53303;47.476;8.084;2023-06-04T08:47:16;95310.41;;;23.27;42.47
66486;BME280;53303;47.476;8.084;2023-06-04T08:49:44;95315.44;;;23.29;42.46
66486;BME280;53303;47.476;8.084;2023-06-04T08:52:13;95318.00;;;23.27;42.47
66486;BME280;53303;47.476;8.084;2023-06-04T08:54:38;95320.78;;;23.27;42.51
66486;BME280;53303;47.476;8.084;2023-06-04T08:57:04;95330.63;;;23.28;42.60
66486;BME280;53303;47.476;8.084;2023-06-04T08:59:30;95325.84;;;23.28;42.58
66486;BME280;53303;47.476;8.084;2023-06-04T09:01:56;95322.28;;;23.28;42.52
66486;BME280;53303;47.476;8.084;2023-06-04T09:04:24;95317.78;;;23.25;42.59
66486;BME280;53303;47.476;8.084;2023-06-04T09:06:49;95316.50;;;23.26;42.64
66486;BME280;53303;47.476;8.084;2023-06-04T09:09:16;95318.00;;;23.27;42.88
66486;BME280;53303;47.476;8.084;2023-06-04T09:11:53;95320.78;;;23.27;42.60
66486;BME280;53303;47.476;8.084;2023-06-04T09:14:19;95315.44;;;23.29;42.80
66486;BME280;53303;47.476;8.084;2023-06-04T09:16:49;95315.75;;;23.25;42.58
66486;BME280;53303;47.476;8.084;2023-06-04T09:19:17;95312.66;;;23.29;42.75
66486;BME280;53303;47.476;8.084;2023-06-04T09:24:19;95314.69;;;23.28;43.00
66486;BME280;53303;47.476;8.084;2023-06-04T09:26:45;95310.19;;;23.25;42.93
66486;BME280;53303;47.476;8.084;2023-06-04T09:29:11;95311.13;;;23.28;43.10
66486;BME280;53303;47.476;8.084;2023-06-04T09:31:39;95311.69;;;23.26;42.88
66486;BME280;53303;47.476;8.084;2023-06-04T09:34:05;95303.66;;;23.23;42.92
66486;BME280;53303;47.476;8.084;2023-06-04T09:36:34;95305.56;;;23.28;42.75
66486;BME280;53303;47.476;8.084;2023-06-04T09:39:02;95305.03;;;23.29;43.02
66486;BME280;53303;47.476;8.084;2023-06-04T09:41:28;95302.56;;;23.26;42.97
66486;BME280;53303;47.476;8.084;2023-06-04T09:44:03;95309.13;;;23.28;42.82
66486;BME280;53303;47.476;8.084;2023-06-04T09:46:30;95305.03;;;23.29;42.97
66486;BME280;53303;47.476;8.084;2023-06-04T09:49:01;95306.34;;;23.28;42.77
66486;BME280;53303;47.476;8.084;2023-06-04T09:51:28;95307.09;;;23.29;43.05
66486;BME280;53303;47.476;8.084;2023-06-04T09:53:57;95311.38;;;23.30;43.02
66486;BME280;53303;47.476;8.084;2023-06-04T09:56:24;95307.81;;;23.29;43.09
66486;BME280;53303;47.476;8.084;2023-06-04T09:58:50;95311.13;;;23.28;43.21
66486;BME280;53303;47.476;8.084;2023-06-04T10:01:19;95319.19;;;23.31;43.04
66486;BME280;53303;47.476;8.084;2023-06-04T10:03:47;95316.19;;;23.29;43.06
66486;BME280;53303;47.476;8.084;2023-06-04T10:06:15;95316.94;;;23.30;43.15
66486;BME280;53303;47.476;8.084;2023-06-04T10:08:43;95308.91;;;23.26;43.38
66486;BME280;53303;47.476;8.084;2023-06-04T10:11:11;95310.41;;;23.27;43.28
66486;BME280;53303;47.476;8.084;2023-06-04T10:16:16;95311.59;;;23.32;43.18
66486;BME280;53303;47.476;8.084;2023-06-04T10:18:43;95298.22;;;23.30;43.25
66486;BME280;53303;47.476;8.084;2023-06-04T10:21:10;95304.50;;;23.31;43.16
66486;BME280;53303;47.476;8.084;2023-06-04T10:23:38;95304.63;;;23.25;43.10
66486;BME280;53303;47.476;8.084;2023-06-04T10:26:04;95298.72;;;23.29;43.20
66486;BME280;53303;47.476;8.084;2023-06-04T10:28:29;95310.09;;;23.31;43.25
66486;BME280;53303;47.476;8.084;2023-06-04T10:30:55;95307.50;;;23.33;43.26
66486;BME280;53303;47.476;8.084;2023-06-04T10:33:21;95302.72;;;23.33;43.24
66486;BME280;53303;47.476;8.084;2023-06-04T10:35:50;95307.09;;;23.29;43.14
66486;BME280;53303;47.476;8.084;2023-06-04T10:38:16;95300.47;;;23.32;43.26
66486;BME280;53303;47.476;8.084;2023-06-04T10:40:47;95305.50;;;23.33;43.24
66486;BME280;53303;47.476;8.084;2023-06-04T10:43:13;95298.41;;;23.32;43.41
66486;BME280;53303;47.476;8.084;2023-06-04T10:45:41;95301.00;;;23.30;43.33
66486;BME280;53303;47.476;8.084;2023-06-04T10:48:09;95305.72;;;23.35;43.31
66486;BME280;53303;47.476;8.084;2023-06-04T10:50:47;95299.38;;;23.35;43.27
66486;BME280;53303;47.476;8.084;2023-06-04T10:53:13;95298.63;;;23.21;43.61
66486;BME280;53303;47.476;8.084;2023-06-04T10:55:46;95305.81;;;23.30;43.52
66486;BME280;53303;47.476;8.084;2023-06-04T10:58:14;95302.72;;;23.33;43.43
66486;BME280;53303;47.476;8.084;2023-06-04T11:00:46;95302.72;;;23.33;43.50
66486;BME280;53303;47.476;8.084;2023-06-04T11:03:12;95304.94;;;23.35;43.30
66486;BME280;53303;47.476;8.084;2023-06-04T11:05:39;95309.78;;;23.34;43.35
66486;BME280;53303;47.476;8.084;2023-06-04T11:08:05;95299.63;;;23.37;43.45
66486;BME280;53303;47.476;8.084;2023-06-04T11:10:36;95298.94;;;23.31;43.51
66486;BME280;53303;47.476;8.084;2023-06-04T11:13:05;95297.69;;;23.32;43.24
66486;BME280;53303;47.476;8.084;2023-06-04T11:15:41;95299.38;;;23.35;43.27
66486;BME280;53303;47.476;8.084;2023-06-04T11:18:07;95303.16;;;23.37;43.28
66486;BME280;53303;47.476;8.084;2023-06-04T11:20:32;95303.47;;;23.34;43.26
66486;BME280;53303;47.476;8.084;2023-06-04T11:22:58;95305.94;;;23.37;43.25
66486;BME280;53303;47.476;8.084;2023-06-04T11:25:29;95298.84;;;23.36;43.14
66486;BME280;53303;47.476;8.084;2023-06-04T11:27:56;95296.84;;;23.37;43.39
66486;BME280;53303;47.476;8.084;2023-06-04T11:30:23;95294.06;;;23.37;43.29
66486;BME280;53303;47.476;8.084;2023-06-04T11:32:49;95298.31;;;23.38;43.00
66486;BME280;53303;47.476;8.084;2023-06-04T11:35:16;95292.00;;;23.37;43.11
66486;BME280;53303;47.476;8.084;2023-06-04T11:37:53;95287.28;;;23.32;43.12
66486;BME280;53303;47.476;8.084;2023-06-04T11:40:19;95286.97;;;23.36;43.12
66486;BME280;53303;47.476;8.084;2023-06-04T11:42:48;95292.22;;;23.40;43.25
66486;BME280;53303;47.476;8.084;2023-06-04T11:45:14;95297.78;;;23.40;43.45
66486;BME280;53303;47.476;8.084;2023-06-04T11:47:48;95287.91;;;23.38;43.37
66486;BME280;53303;47.476;8.084;2023-06-04T11:50:14;95292.22;;;23.40;43.47
66486;BME280;53303;47.476;8.084;2023-06-04T11:52:40;95280.34;;;23.39;43.51
66486;BME280;53303;47.476;8.084;2023-06-04T11:55:12;95291.47;;;23.39;43.41
66486;BME280;53303;47.476;8.084;2023-06-04T11:57:39;95298.53;;;23.40;43.41
66486;BME280;53303;47.476;8.084;2023-06-04T12:00:07;95283.88;;;23.40;43.46
66486;BME280;53303;47.476;8.084;2023-06-04T12:02:55;95286.44;;;23.37;43.51
66486;BME280;53303;47.476;8.084;2023-06-04T12:05:23;95287.41;;;23.40;43.38
66486;BME280;53303;47.476;8.084;2023-06-04T12:07:51;95275.50;;;23.40;43.24
66486;BME280;53303;47.476;8.084;2023-06-04T12:10:20;95263.84;;;23.41;43.43
66486;BME280;53303;47.476;8.084;2023-06-04T12:12:46;95264.38;;;23.40;43.54
66486;BME280;53303;47.476;8.084;2023-06-04T12:15:12;95270.16;;;23.42;43.53
66486;BME280;53303;47.476;8.084;2023-06-04T12:17:51;95267.91;;;23.40;43.45
66486;BME280;53303;47.476;8.084;2023-06-04T12:20:16;95265.88;;;23.41;43.67
66486;BME280;53303;47.476;8.084;2023-06-04T12:22:48;95268.66;;;23.41;43.44
66486;BME280;53303;47.476;8.084;2023-06-04T12:25:29;95267.91;;;23.40;43.47
66486;BME280;53303;47.476;8.084;2023-06-04T12:27:55;95266.63;;;23.41;43.46
66486;BME280;53303;47.476;8.084;2023-06-04T12:30:21;95267.59;;;23.44;43.61
66486;BME280;53303;47.476;8.084;2023-06-04T12:32:50;95262.22;;;23.46;43.54
66486;BME280;53303;47.476;8.084;2023-06-04T12:35:16;95275.19;;;23.43;43.63
66486;BME280;53303;47.476;8.084;2023-06-04T12:37:43;95269.84;;;23.45;43.44
66486;BME280;53303;47.476;8.084;2023-06-04T12:40:09;95273.59;;;23.48;43.71
66486;BME280;53303;47.476;8.084;2023-06-04T12:42:38;95268.34;;;23.44;43.55
66486;BME280;53303;47.476;8.084;2023-06-04T12:45:04;95273.81;;;23.50;43.65
66486;BME280;53303;47.476;8.084;2023-06-04T12:47:31;95271.78;;;23.50;43.47
66486;BME280;53303;47.476;8.084;2023-06-04T12:49:57;95264.69;;;23.49;43.52
66486;BME280;53303;47.476;8.084;2023-06-04T12:52:23;95266.41;;;23.52;43.53
66486;BME280;53303;47.476;8.084;2023-06-04T12:54:49;95264.69;;;23.49;43.63
66486;BME280;53303;47.476;8.084;2023-06-04T12:57:16;95266.09;;;23.56;43.50
66486;BME280;53303;47.476;8.084;2023-06-04T12:59:42;95249.69;;;23.52;43.69
66486;BME280;53303;47.476;8.084;2023-06-04T13:02:07;95265.34;;;23.55;43.61
66486;BME280;53303;47.476;8.084;2023-06-04T13:04:35;95259.78;;;23.55;43.45
66486;BME280;53303;47.476;8.084;2023-06-04T13:07:00;95254.31;;;23.50;43.76
66486;BME280;53303;47.476;8.084;2023-06-04T13:09:26;95253.47;;;23.55;43.87
66486;BME280;53303;47.476;8.084;2023-06-04T13:11:53;95250.91;;;23.57;44.09